Time;durP1;ratioP1;P1;durP2;ratioP2;P2;SDS_P1;SDS_P2;PMS_P1;PMS_P2;Temp;Humidity;BMP_temperature;BMP_pressure;BME280_temperature;BME280_humidity;BME280_pressure;Samples;Min_cycle;Max_cycle;Signal;HPM_P1;HPM_P2
2022/08/31 00:05:11;;;;;;;2.42;1.52;;;;;;;;;;5065776;28;20674;-68
2022/08/31 00:07:38;;;;;;;1.20;1.10;;;;;;;;;;5061206;28;20223;-68
2022/08/31 00:10:12;;;;;;;1.52;1.38;;;;;;;;;;5065518;28;20203;-68
2022/08/31 00:12:40;;;;;;;2.78;1.42;;;;;;;;;;5058075;28;20622;-69
2022/08/31 00:15:08;;;;;;;1.58;1.48;;;;;;;;;;5055966;28;20234;-68
2022/08/31 00:17:35;;;;;;;1.70;1.27;;;;;;;;;;5053342;28;20228;-68
2022/08/31 00:20:03;;;;;;;1.42;1.30;;;;;;;;;;5049230;28;20199;-68
2022/08/31 00:22:31;;;;;;;1.30;1.20;;;;;;;;;;5064881;28;20262;-68
2022/08/31 00:24:58;;;;;;;1.10;1.10;;;;;;;;;;5049862;28;20689;-68
2022/08/31 00:27:25;;;;;;;1.42;1.20;;;;;;;;;;5054904;28;20259;-69
2022/08/31 00:29:52;;;;;;;1.35;1.35;;;;;;;;;;5063345;28;20211;-68
2022/08/31 00:32:20;;;;;;;1.33;1.23;;;;;;;;;;5063468;28;20207;-68
2022/08/31 00:34:47;;;;;;;3.58;1.30;;;;;;;;;;5062560;28;20211;-68
2022/08/31 00:37:14;;;;;;;1.05;1.05;;;;;;;;;;5056025;28;20252;-67
2022/08/31 00:39:41;;;;;;;2.10;1.30;;;;;;;;;;5057968;28;20223;-67
2022/08/31 00:42:09;;;;;;;1.52;1.42;;;;;;;;;;5052783;28;20219;-68
2022/08/31 00:44:36;;;;;;;2.63;1.08;;;;;;;;;;5053030;28;20226;-68
2022/08/31 00:47:03;;;;;;;1.33;1.30;;;;;;;;;;5052586;28;20293;-67
2022/08/31 00:49:33;;;;;;;1.85;1.10;;;;;;;;;;5054188;28;20606;-68
2022/08/31 00:52:02;;;;;;;1.58;1.33;;;;;;;;;;5054566;28;20199;-68
2022/08/31 00:54:32;;;;;;;1.48;1.30;;;;;;;;;;5054527;28;20203;-67
2022/08/31 00:56:59;;;;;;;2.15;1.33;;;;;;;;;;5067529;28;20691;-67
2022/08/31 00:59:27;;;;;;;1.17;1.17;;;;;;;;;;5051491;28;20230;-66
2022/08/31 01:01:54;;;;;;;1.90;1.17;;;;;;;;;;5057694;28;20628;-68
2022/08/31 01:04:22;;;;;;;2.13;1.63;;;;;;;;;;5049024;28;20207;-67
2022/08/31 01:06:51;;;;;;;1.83;1.73;;;;;;;;;;5057296;28;20259;-68
2022/08/31 01:09:19;;;;;;;1.30;1.30;;;;;;;;;;5067172;28;20215;-67
2022/08/31 01:11:46;;;;;;;1.20;1.20;;;;;;;;;;5060505;28;20215;-68
2022/08/31 01:14:14;;;;;;;4.35;1.50;;;;;;;;;;5052898;28;20203;-68
2022/08/31 01:16:44;;;;;;;1.35;1.35;;;;;;;;;;5059274;28;20762;-68
2022/08/31 01:19:17;;;;;;;1.95;1.63;;;;;;;;;;5056478;28;20241;-68
2022/08/31 01:21:45;;;;;;;1.20;1.10;;;;;;;;;;5055558;28;20354;-68
2022/08/31 01:24:14;;;;;;;1.42;1.38;;;;;;;;;;5063216;28;20210;-68
2022/08/31 01:26:41;;;;;;;4.78;1.33;;;;;;;;;;5047011;28;20246;-68
2022/08/31 01:29:08;;;;;;;1.23;1.23;;;;;;;;;;5047677;28;20220;-67
2022/08/31 01:31:37;;;;;;;1.05;1.02;;;;;;;;;;5047830;28;20218;-67
2022/08/31 01:34:04;;;;;;;1.30;1.30;;;;;;;;;;5048005;28;20218;-67
2022/08/31 01:36:32;;;;;;;1.45;1.35;;;;;;;;;;5046711;28;20211;-67
2022/08/31 01:38:59;;;;;;;1.20;1.20;;;;;;;;;;5047796;28;20199;-68
2022/08/31 01:41:28;;;;;;;1.33;1.30;;;;;;;;;;5064595;28;20233;-68
2022/08/31 01:43:55;;;;;;;1.80;1.70;;;;;;;;;;5047647;28;20976;-67
2022/08/31 01:46:23;;;;;;;1.30;1.20;;;;;;;;;;5047440;28;20195;-68
2022/08/31 01:48:51;;;;;;;3.15;1.92;;;;;;;;;;5044825;28;20254;-68
2022/08/31 01:51:19;;;;;;;1.20;1.10;;;;;;;;;;5046745;28;20792;-67
2022/08/31 01:53:47;;;;;;;1.40;1.30;;;;;;;;;;5047352;28;20208;-68
2022/08/31 01:56:16;;;;;;;1.27;1.27;;;;;;;;;;5050327;28;20208;-67
2022/08/31 01:58:44;;;;;;;1.92;1.80;;;;;;;;;;5057447;28;20214;-68
2022/08/31 02:01:11;;;;;;;1.67;1.58;;;;;;;;;;5067430;28;20214;-67
2022/08/31 02:03:38;;;;;;;1.88;1.58;;;;;;;;;;5061909;28;20214;-68
2022/08/31 02:06:09;;;;;;;1.20;1.20;;;;;;;;;;5060433;28;20214;-68
2022/08/31 02:08:36;;;;;;;1.77;1.58;;;;;;;;;;5047988;28;20235;-67
2022/08/31 02:11:04;;;;;;;1.20;1.00;;;;;;;;;;5063633;28;20666;-67
2022/08/31 02:13:31;;;;;;;1.33;1.30;;;;;;;;;;5058528;28;20203;-67
2022/08/31 02:19:03;;;;;;;1.10;1.10;;;;;;;;;;5052708;28;20281;-67
2022/08/31 02:21:30;;;;;;;1.42;1.33;;;;;;;;;;5054624;28;20937;-68
2022/08/31 02:23:57;;;;;;;2.25;1.30;;;;;;;;;;5065705;28;20203;-68
2022/08/31 02:26:24;;;;;;;2.97;1.50;;;;;;;;;;5051484;28;20200;-68
2022/08/31 02:28:51;;;;;;;1.45;1.45;;;;;;;;;;5049408;28;20227;-67
2022/08/31 02:31:18;;;;;;;1.55;1.50;;;;;;;;;;5065563;28;20272;-68
2022/08/31 02:33:45;;;;;;;1.73;1.20;;;;;;;;;;5064397;28;20233;-67
2022/08/31 02:36:14;;;;;;;1.23;1.23;;;;;;;;;;5059927;28;20211;-68
2022/08/31 02:38:41;;;;;;;1.50;1.50;;;;;;;;;;5051150;28;20253;-68
2022/08/31 02:41:08;;;;;;;1.25;1.25;;;;;;;;;;5051675;28;20299;-68
2022/08/31 02:43:35;;;;;;;1.40;1.30;;;;;;;;;;5067161;28;20280;-67
2022/08/31 02:46:02;;;;;;;1.35;1.33;;;;;;;;;;5060414;28;20252;-67
2022/08/31 02:48:29;;;;;;;1.45;1.40;;;;;;;;;;5062329;28;20223;-67
2022/08/31 02:51:03;;;;;;;1.90;1.80;;;;;;;;;;5047830;28;20219;-68
2022/08/31 02:53:31;;;;;;;1.55;1.20;;;;;;;;;;5052510;28;20686;-67
2022/08/31 02:55:59;;;;;;;1.60;1.50;;;;;;;;;;5064233;28;20207;-67
2022/08/31 02:58:26;;;;;;;3.30;1.85;;;;;;;;;;5070501;28;20276;-67
2022/08/31 03:00:53;;;;;;;1.30;1.25;;;;;;;;;;5068419;28;20214;-67
2022/08/31 03:03:21;;;;;;;1.40;1.30;;;;;;;;;;5064836;28;20204;-67
2022/08/31 03:05:48;;;;;;;1.67;1.48;;;;;;;;;;5050892;28;20242;-68
2022/08/31 03:08:15;;;;;;;5.63;1.45;;;;;;;;;;5053411;28;20231;-68
2022/08/31 03:10:43;;;;;;;1.33;1.33;;;;;;;;;;5066921;28;20207;-67
2022/08/31 03:13:10;;;;;;;1.70;1.60;;;;;;;;;;5066271;28;20210;-67
2022/08/31 03:15:37;;;;;;;1.40;1.40;;;;;;;;;;5061548;28;20218;-67
2022/08/31 03:18:04;;;;;;;2.15;1.30;;;;;;;;;;5057523;28;20227;-66
2022/08/31 03:20:32;;;;;;;1.40;1.40;;;;;;;;;;5068641;28;20210;-66
2022/08/31 03:22:59;;;;;;;1.38;1.27;;;;;;;;;;5059903;28;20246;-66
2022/08/31 03:25:26;;;;;;;1.23;1.23;;;;;;;;;;5055183;28;20245;-66
2022/08/31 03:27:54;;;;;;;0.95;0.95;;;;;;;;;;5067932;28;20207;-66
2022/08/31 03:30:22;;;;;;;1.38;1.27;;;;;;;;;;5068240;28;20556;-67
2022/08/31 03:32:50;;;;;;;1.35;1.35;;;;;;;;;;5062281;28;20210;-68
2022/08/31 03:35:17;;;;;;;1.92;1.70;;;;;;;;;;5052402;28;20618;-67
2022/08/31 03:37:44;;;;;;;1.65;1.55;;;;;;;;;;5052251;28;20227;-67
2022/08/31 03:40:12;;;;;;;2.25;1.75;;;;;;;;;;5059211;28;20199;-66
2022/08/31 03:42:39;;;;;;;1.25;1.25;;;;;;;;;;5069589;28;20218;-68
2022/08/31 03:45:08;;;;;;;1.75;1.65;;;;;;;;;;5067688;28;20569;-68
2022/08/31 03:47:36;;;;;;;1.77;1.70;;;;;;;;;;5068817;28;20215;-65
2022/08/31 03:50:04;;;;;;;1.75;1.40;;;;;;;;;;5053773;28;20230;-67
2022/08/31 03:52:31;;;;;;;4.20;1.30;;;;;;;;;;5051094;28;20208;-66
2022/08/31 03:54:58;;;;;;;1.83;1.73;;;;;;;;;;5051300;28;20241;-66
2022/08/31 03:57:25;;;;;;;1.55;1.50;;;;;;;;;;5051785;28;20219;-67
2022/08/31 03:59:53;;;;;;;0.77;0.77;;;;;;;;;;5064943;28;20203;-64
2022/08/31 04:02:22;;;;;;;2.72;1.33;;;;;;;;;;5063755;28;20209;-65
2022/08/31 04:04:50;;;;;;;2.97;1.10;;;;;;;;;;5057587;28;20200;-66
2022/08/31 04:07:18;;;;;;;1.30;1.30;;;;;;;;;;5061517;28;20286;-66
2022/08/31 04:09:45;;;;;;;1.60;1.50;;;;;;;;;;5069453;28;20317;-67
2022/08/31 04:12:12;;;;;;;1.40;1.40;;;;;;;;;;5051764;28;20210;-66
2022/08/31 04:14:39;;;;;;;1.20;1.20;;;;;;;;;;5055823;28;20246;-65
2022/08/31 04:17:07;;;;;;;1.33;1.33;;;;;;;;;;5057434;28;20750;-66
2022/08/31 04:19:35;;;;;;;1.70;1.60;;;;;;;;;;5064721;28;20203;-66
2022/08/31 04:22:02;;;;;;;1.80;1.70;;;;;;;;;;5054503;28;20248;-66
2022/08/31 04:24:29;;;;;;;3.65;1.35;;;;;;;;;;5053424;28;20671;-66
2022/08/31 04:26:56;;;;;;;1.55;1.45;;;;;;;;;;5054122;28;20207;-66
2022/08/31 04:29:23;;;;;;;1.65;1.55;;;;;;;;;;5063562;28;20230;-67
2022/08/31 04:31:50;;;;;;;1.60;1.50;;;;;;;;;;5050336;28;20211;-66
2022/08/31 04:34:17;;;;;;;1.65;1.55;;;;;;;;;;5056705;28;20257;-66
2022/08/31 04:36:45;;;;;;;1.90;1.52;;;;;;;;;;5048916;28;20291;-66
2022/08/31 04:39:13;;;;;;;2.58;1.35;;;;;;;;;;5046608;28;20200;-66
2022/08/31 04:41:44;;;;;;;1.13;1.13;;;;;;;;;;5058400;28;20732;-66
2022/08/31 04:44:11;;;;;;;1.35;1.35;;;;;;;;;;5051022;28;20203;-66
2022/08/31 04:46:39;;;;;;;1.65;1.65;;;;;;;;;;5063948;28;20669;-66
2022/08/31 04:49:08;;;;;;;1.60;1.50;;;;;;;;;;5049809;28;20238;-65
2022/08/31 04:51:35;;;;;;;2.05;1.88;;;;;;;;;;5063624;28;20555;-67
2022/08/31 04:54:04;;;;;;;2.88;1.63;;;;;;;;;;5058504;28;20524;-66
2022/08/31 04:56:32;;;;;;;1.38;1.33;;;;;;;;;;5050297;28;20235;-67
2022/08/31 04:58:59;;;;;;;1.73;1.63;;;;;;;;;;5066861;28;20214;-67
2022/08/31 05:01:28;;;;;;;1.40;1.40;;;;;;;;;;5053285;28;20655;-67
2022/08/31 05:03:56;;;;;;;1.30;1.30;;;;;;;;;;5065838;28;20214;-67
2022/08/31 05:06:24;;;;;;;1.63;1.58;;;;;;;;;;5066717;28;20203;-67
2022/08/31 05:08:53;;;;;;;1.40;1.30;;;;;;;;;;5049052;28;20211;-67
2022/08/31 05:11:21;;;;;;;1.40;1.40;;;;;;;;;;5051335;28;20242;-67
2022/08/31 05:13:49;;;;;;;1.70;1.60;;;;;;;;;;5049336;28;20662;-67
2022/08/31 05:16:17;;;;;;;1.63;1.63;;;;;;;;;;5053255;28;20211;-67
2022/08/31 05:18:44;;;;;;;1.73;1.63;;;;;;;;;;5056411;28;20262;-67
2022/08/31 05:21:12;;;;;;;1.42;1.42;;;;;;;;;;5053060;28;20216;-67
2022/08/31 05:23:40;;;;;;;2.08;1.98;;;;;;;;;;5050397;28;20219;-68
2022/08/31 05:26:07;;;;;;;1.17;1.17;;;;;;;;;;5057799;28;20206;-69
2022/08/31 05:28:36;;;;;;;1.42;1.42;;;;;;;;;;5056283;28;20199;-68
2022/08/31 05:31:03;;;;;;;1.38;1.38;;;;;;;;;;5057673;28;20215;-66
2022/08/31 05:33:30;;;;;;;1.63;1.60;;;;;;;;;;5060751;28;20691;-67
2022/08/31 05:35:57;;;;;;;1.92;1.83;;;;;;;;;;5057238;28;20293;-67
2022/08/31 05:38:24;;;;;;;1.55;1.48;;;;;;;;;;5057540;28;20212;-67
2022/08/31 05:40:53;;;;;;;1.38;1.38;;;;;;;;;;5054750;28;20950;-68
2022/08/31 05:43:20;;;;;;;1.35;1.35;;;;;;;;;;5055729;28;20653;-68
2022/08/31 05:45:48;;;;;;;1.50;1.50;;;;;;;;;;5055962;28;20575;-69
2022/08/31 05:48:16;;;;;;;1.67;1.58;;;;;;;;;;5057533;28;20203;-68
2022/08/31 05:50:44;;;;;;;1.60;1.60;;;;;;;;;;5054588;28;20302;-67
2022/08/31 05:53:11;;;;;;;1.48;1.40;;;;;;;;;;5058728;28;20216;-67
2022/08/31 05:55:38;;;;;;;1.77;1.67;;;;;;;;;;5053707;28;20798;-67
2022/08/31 05:58:05;;;;;;;1.80;1.70;;;;;;;;;;5059672;28;20200;-67
2022/08/31 06:00:32;;;;;;;1.42;1.42;;;;;;;;;;5063328;28;20570;-67
2022/08/31 06:03:00;;;;;;;1.98;1.70;;;;;;;;;;5056707;28;20619;-68
2022/08/31 06:05:29;;;;;;;1.25;1.25;;;;;;;;;;5048949;28;20206;-67
2022/08/31 06:07:56;;;;;;;1.50;1.50;;;;;;;;;;5048527;28;20203;-67
2022/08/31 06:10:24;;;;;;;1.42;1.33;;;;;;;;;;5059899;28;20230;-68
2022/08/31 06:12:51;;;;;;;4.28;1.48;;;;;;;;;;5051631;28;20207;-68
2022/08/31 06:15:19;;;;;;;2.30;1.25;;;;;;;;;;5065601;28;20207;-68
2022/08/31 06:17:46;;;;;;;1.55;1.55;;;;;;;;;;5054119;28;20323;-67
2022/08/31 06:20:16;;;;;;;1.42;1.30;;;;;;;;;;5046798;28;20212;-66
2022/08/31 06:22:45;;;;;;;1.80;1.70;;;;;;;;;;5058095;28;20776;-67
2022/08/31 06:25:18;;;;;;;1.55;1.45;;;;;;;;;;5063027;28;20214;-66
2022/08/31 06:27:48;;;;;;;1.48;1.48;;;;;;;;;;5068724;28;20211;-67
2022/08/31 06:30:17;;;;;;;1.38;1.38;;;;;;;;;;5070849;28;20235;-65
2022/08/31 06:32:44;;;;;;;1.67;1.58;;;;;;;;;;5058238;28;20199;-64
2022/08/31 06:35:11;;;;;;;3.05;2.35;;;;;;;;;;5069060;28;20217;-67
2022/08/31 06:37:40;;;;;;;1.70;1.70;;;;;;;;;;5065803;28;20204;-64
2022/08/31 06:40:07;;;;;;;2.30;2.10;;;;;;;;;;5050262;28;20301;-67
2022/08/31 06:42:34;;;;;;;1.63;1.63;;;;;;;;;;5052976;28;20211;-67
2022/08/31 06:45:01;;;;;;;2.60;2.40;;;;;;;;;;5051065;28;20284;-64
2022/08/31 06:47:28;;;;;;;2.15;2.05;;;;;;;;;;5071025;28;20256;-65
2022/08/31 06:49:56;;;;;;;2.47;2.40;;;;;;;;;;5071054;28;20235;-65
2022/08/31 06:52:23;;;;;;;2.63;2.53;;;;;;;;;;5055659;28;20298;-65
2022/08/31 06:54:52;;;;;;;2.85;2.65;;;;;;;;;;5064841;28;20214;-65
2022/08/31 06:57:19;;;;;;;2.13;2.03;;;;;;;;;;5053010;28;20717;-65
2022/08/31 06:59:46;;;;;;;3.95;2.53;;;;;;;;;;5050631;28;20576;-65
2022/08/31 07:02:13;;;;;;;2.42;2.22;;;;;;;;;;5052212;28;20203;-65
2022/08/31 07:04:40;;;;;;;2.55;2.40;;;;;;;;;;5065062;28;20210;-66
2022/08/31 07:07:10;;;;;;;2.92;2.80;;;;;;;;;;5050936;28;20211;-66
2022/08/31 07:09:38;;;;;;;2.90;2.80;;;;;;;;;;5051328;28;20283;-65
2022/08/31 07:12:07;;;;;;;2.83;2.72;;;;;;;;;;5049799;28;20315;-66
2022/08/31 07:14:34;;;;;;;2.53;2.38;;;;;;;;;;5049701;28;20281;-67
2022/08/31 07:17:02;;;;;;;3.67;3.38;;;;;;;;;;5049814;28;20310;-66
2022/08/31 07:19:30;;;;;;;7.22;3.40;;;;;;;;;;5049805;28;20232;-66
2022/08/31 07:21:58;;;;;;;5.90;2.95;;;;;;;;;;5049379;28;20236;-69
2022/08/31 07:24:27;;;;;;;3.17;2.45;;;;;;;;;;5049826;28;20212;-69
2022/08/31 07:26:56;;;;;;;2.78;2.58;;;;;;;;;;5050014;28;20900;-64
2022/08/31 07:29:26;;;;;;;5.88;2.65;;;;;;;;;;5049819;28;20223;-70
2022/08/31 07:31:54;;;;;;;2.92;2.75;;;;;;;;;;5050053;28;20212;-68
2022/08/31 07:34:24;;;;;;;3.20;2.83;;;;;;;;;;5053938;28;20221;-64
2022/08/31 07:42:22;;;;;;;5.10;2.67;;;;;;;;;;5052602;28;20206;-61
2022/08/31 07:44:51;;;;;;;3.08;2.88;;;;;;;;;;5069649;28;20207;-65
2022/08/31 07:47:19;;;;;;;2.92;2.50;;;;;;;;;;5067355;28;20200;-65
2022/08/31 07:49:49;;;;;;;3.30;3.10;;;;;;;;;;5067135;28;20605;-65
2022/08/31 07:52:20;;;;;;;4.63;3.40;;;;;;;;;;5060558;28;20211;-65
2022/08/31 07:54:47;;;;;;;2.75;2.55;;;;;;;;;;5069418;28;20210;-65
2022/08/31 07:57:14;;;;;;;3.72;2.45;;;;;;;;;;5055144;28;20713;-65
2022/08/31 07:59:41;;;;;;;2.30;2.20;;;;;;;;;;5048920;28;20215;-64
2022/08/31 08:02:10;;;;;;;4.18;2.88;;;;;;;;;;5049682;28;20615;-64
2022/08/31 08:04:38;;;;;;;2.63;2.42;;;;;;;;;;5066293;28;20772;-63
2022/08/31 08:07:05;;;;;;;2.13;2.10;;;;;;;;;;5061124;28;20243;-63
2022/08/31 08:09:33;;;;;;;2.30;2.20;;;;;;;;;;5049178;28;20303;-63
2022/08/31 08:12:05;;;;;;;5.95;2.88;;;;;;;;;;5050864;28;20211;-64
2022/08/31 08:14:33;;;;;;;2.70;2.50;;;;;;;;;;5049859;28;20523;-64
2022/08/31 08:17:00;;;;;;;2.97;2.53;;;;;;;;;;5050224;28;20750;-64
2022/08/31 08:19:28;;;;;;;2.10;2.00;;;;;;;;;;5058108;28;20216;-63
2022/08/31 08:21:56;;;;;;;2.40;2.20;;;;;;;;;;5050588;28;20238;-64
2022/08/31 08:24:23;;;;;;;3.05;2.85;;;;;;;;;;5064928;28;20207;-64
2022/08/31 08:26:51;;;;;;;3.10;2.10;;;;;;;;;;5064136;28;20211;-63
2022/08/31 08:29:18;;;;;;;3.95;2.42;;;;;;;;;;5068717;28;20211;-64
2022/08/31 08:31:51;;;;;;;2.47;2.38;;;;;;;;;;5066527;28;20226;-63
2022/08/31 08:34:19;;;;;;;2.28;2.17;;;;;;;;;;5057271;28;20212;-64
2022/08/31 08:36:47;;;;;;;3.20;2.22;;;;;;;;;;5055006;28;20953;-63
2022/08/31 08:39:15;;;;;;;2.35;2.17;;;;;;;;;;5067067;28;20227;-64
2022/08/31 08:41:43;;;;;;;2.15;2.03;;;;;;;;;;5067054;28;20629;-63
2022/08/31 08:44:11;;;;;;;2.53;2.33;;;;;;;;;;5068831;28;20211;-64
2022/08/31 08:46:40;;;;;;;4.03;2.67;;;;;;;;;;5068595;28;20206;-63
2022/08/31 08:49:13;;;;;;;2.65;2.30;;;;;;;;;;5068022;28;20264;-63
2022/08/31 08:51:41;;;;;;;2.47;2.28;;;;;;;;;;5066001;28;20293;-63
2022/08/31 08:54:11;;;;;;;2.30;2.15;;;;;;;;;;5047976;28;20257;-64
2022/08/31 08:56:40;;;;;;;5.90;2.28;;;;;;;;;;5048291;28;20207;-64
2022/08/31 08:59:10;;;;;;;3.70;2.78;;;;;;;;;;5056738;28;20203;-63
2022/08/31 09:01:37;;;;;;;3.25;2.90;;;;;;;;;;5068019;28;20199;-64
2022/08/31 09:04:07;;;;;;;2.38;2.20;;;;;;;;;;5067116;28;20203;-64
2022/08/31 09:06:40;;;;;;;2.47;2.13;;;;;;;;;;5064996;28;20210;-68
2022/08/31 09:09:20;;;;;;;2.03;1.92;;;;;;;;;;5067410;28;20214;-69
2022/08/31 09:11:55;;;;;;;1.95;1.95;;;;;;;;;;5047483;28;20234;-65
2022/08/31 09:14:28;;;;;;;3.03;2.22;;;;;;;;;;5047497;28;20260;-65
2022/08/31 09:17:00;;;;;;;2.47;2.38;;;;;;;;;;5047501;28;20241;-66
2022/08/31 09:19:27;;;;;;;2.20;2.10;;;;;;;;;;5046415;28;20258;-65
2022/08/31 09:21:55;;;;;;;2.38;2.28;;;;;;;;;;5047625;28;20235;-66
2022/08/31 09:24:25;;;;;;;2.42;2.22;;;;;;;;;;5046646;28;20219;-66
2022/08/31 09:26:59;;;;;;;2.40;2.30;;;;;;;;;;5047760;28;20216;-64
2022/08/31 09:29:26;;;;;;;2.55;2.38;;;;;;;;;;5046818;28;20207;-63
2022/08/31 09:32:00;;;;;;;3.08;2.85;;;;;;;;;;5048037;28;20223;-65
2022/08/31 09:34:30;;;;;;;3.08;2.85;;;;;;;;;;5047676;28;20564;-65
2022/08/31 09:37:14;;;;;;;2.53;2.33;;;;;;;;;;5053217;28;20671;-66
2022/08/31 09:39:46;;;;;;;2.70;2.50;;;;;;;;;;5066027;28;20253;-66
2022/08/31 09:42:15;;;;;;;4.15;2.47;;;;;;;;;;5047474;28;20411;-66
2022/08/31 09:44:43;;;;;;;2.50;2.38;;;;;;;;;;5047320;28;20664;-66
2022/08/31 09:47:18;;;;;;;2.55;2.08;;;;;;;;;;5050827;28;20271;-65
2022/08/31 09:49:54;;;;;;;2.42;2.33;;;;;;;;;;5060126;28;20221;-66
2022/08/31 09:55:12;;;;;;;2.47;2.13;;;;;;;;;;5047637;28;20325;-66
2022/08/31 09:55:20;;;;;;;5.18;2.63;;;;;;;;;;5047251;28;20265;-66
2022/08/31 09:57:51;;;;;;;3.17;2.97;;;;;;;;;;5047312;28;20210;-66
2022/08/31 10:00:27;;;;;;;5.28;3.25;;;;;;;;;;5047607;28;20233;-66
2022/08/31 10:02:57;;;;;;;4.43;2.90;;;;;;;;;;5048551;28;20221;-66
2022/08/31 10:05:31;;;;;;;5.10;2.85;;;;;;;;;;5051437;28;20207;-66
2022/08/31 10:08:03;;;;;;;4.63;2.25;;;;;;;;;;5065665;28;20549;-66
2022/08/31 10:10:34;;;;;;;3.88;3.17;;;;;;;;;;5071185;28;20233;-64
2022/08/31 10:13:04;;;;;;;3.40;3.13;;;;;;;;;;5071431;28;20238;-65
2022/08/31 10:15:34;;;;;;;3.03;2.83;;;;;;;;;;5071294;28;20210;-66
2022/08/31 10:18:12;;;;;;;3.67;3.35;;;;;;;;;;5071583;28;20227;-66
2022/08/31 10:20:45;;;;;;;3.45;3.15;;;;;;;;;;5071266;28;20208;-65
2022/08/31 10:23:15;;;;;;;4.45;3.15;;;;;;;;;;5071052;28;20269;-66
2022/08/31 10:25:47;;;;;;;3.58;3.30;;;;;;;;;;5062618;28;20207;-66
2022/08/31 10:28:17;;;;;;;3.55;3.25;;;;;;;;;;5071225;28;20206;-66
2022/08/31 10:30:48;;;;;;;3.40;2.90;;;;;;;;;;5070804;28;20233;-65
2022/08/31 10:33:20;;;;;;;3.33;2.83;;;;;;;;;;5070661;28;20688;-66
2022/08/31 10:35:59;;;;;;;3.78;3.47;;;;;;;;;;5070858;28;20211;-66
2022/08/31 10:38:31;;;;;;;3.20;3.00;;;;;;;;;;5070923;28;20654;-66
2022/08/31 10:41:04;;;;;;;4.20;3.67;;;;;;;;;;5070611;28;20207;-66
2022/08/31 10:43:33;;;;;;;3.53;3.28;;;;;;;;;;5070996;28;20211;-60
2022/08/31 10:46:02;;;;;;;33.75;11.65;;;;;;;;;;5070204;28;20215;-65
2022/08/31 10:48:29;;;;;;;4.82;3.78;;;;;;;;;;5050196;28;20223;-62
2022/08/31 10:51:08;;;;;;;6.85;3.80;;;;;;;;;;5049779;28;20228;-68
2022/08/31 10:53:49;;;;;;;3.65;3.38;;;;;;;;;;5070420;28;20225;-65
2022/08/31 10:56:20;;;;;;;3.33;3.13;;;;;;;;;;5070449;28;20210;-63
2022/08/31 10:58:56;;;;;;;3.60;3.35;;;;;;;;;;5056018;28;20212;-69
2022/08/31 11:01:27;;;;;;;3.72;3.38;;;;;;;;;;5050877;28;20665;-68
2022/08/31 11:04:07;;;;;;;4.93;3.30;;;;;;;;;;5050649;28;20230;-69
2022/08/31 11:06:38;;;;;;;6.80;3.42;;;;;;;;;;5066728;28;20214;-68
2022/08/31 11:09:07;;;;;;;3.63;3.33;;;;;;;;;;5069982;28;20218;-68
2022/08/31 11:11:38;;;;;;;3.67;3.38;;;;;;;;;;5067897;28;20227;-67
2022/08/31 11:14:16;;;;;;;2.85;2.58;;;;;;;;;;5064015;28;20693;-68
2022/08/31 11:16:52;;;;;;;2.85;2.65;;;;;;;;;;5050142;28;20643;-68
2022/08/31 11:19:49;;;;;;;2.22;2.13;;;;;;;;;;5054012;28;20210;-67
2022/08/31 11:22:36;;;;;;;4.20;2.55;;;;;;;;;;5034723;28;20267;-67
2022/08/31 11:25:24;;;;;;;2.60;2.47;;;;;;;;;;5068385;28;20334;-67
2022/08/31 11:27:56;;;;;;;2.85;2.70;;;;;;;;;;5051974;28;20215;-68
2022/08/31 11:30:26;;;;;;;2.75;2.35;;;;;;;;;;5049344;28;20226;-67
2022/08/31 11:32:54;;;;;;;2.50;2.40;;;;;;;;;;5055453;28;20238;-66
2022/08/31 11:35:40;;;;;;;2.78;2.60;;;;;;;;;;5050111;28;20678;-67
2022/08/31 11:38:09;;;;;;;2.75;2.53;;;;;;;;;;5050271;28;20219;-69
2022/08/31 11:40:58;;;;;;;2.80;2.70;;;;;;;;;;5049293;28;21023;-68
2022/08/31 11:43:43;;;;;;;3.03;2.75;;;;;;;;;;5067480;28;20211;-67
2022/08/31 11:46:29;;;;;;;2.70;2.60;;;;;;;;;;5064817;28;20214;-67
2022/08/31 11:48:59;;;;;;;2.72;2.40;;;;;;;;;;5064741;28;20207;-68
2022/08/31 11:51:32;;;;;;;2.72;2.53;;;;;;;;;;5059768;28;20296;-67
2022/08/31 11:54:00;;;;;;;2.33;2.22;;;;;;;;;;5050376;28;20218;-68
2022/08/31 11:56:32;;;;;;;3.42;2.40;;;;;;;;;;5056610;28;20728;-68
2022/08/31 11:59:14;;;;;;;2.53;2.42;;;;;;;;;;5059284;28;20575;-67
2022/08/31 12:01:43;;;;;;;3.50;2.58;;;;;;;;;;5061641;28;20211;-67
2022/08/31 12:04:26;;;;;;;2.60;2.50;;;;;;;;;;5059602;28;20218;-67
2022/08/31 12:07:03;;;;;;;2.17;2.05;;;;;;;;;;5057459;28;20853;-68
2022/08/31 12:09:47;;;;;;;2.30;2.20;;;;;;;;;;5068923;28;20234;-70
2022/08/31 12:12:31;;;;;;;4.43;2.08;;;;;;;;;;5068954;28;20716;-68
2022/08/31 12:15:04;;;;;;;2.70;2.60;;;;;;;;;;5063121;28;20316;-68
2022/08/31 12:17:38;;;;;;;2.20;2.13;;;;;;;;;;5068448;28;21171;-68
2022/08/31 12:20:08;;;;;;;2.20;2.10;;;;;;;;;;5067096;28;20236;-68
2022/08/31 12:25:42;;;;;;;1.85;1.83;;;;;;;;;;5053767;28;20248;-67
2022/08/31 12:28:14;;;;;;;2.40;2.30;;;;;;;;;;5051338;28;20293;-67
2022/08/31 12:30:48;;;;;;;1.90;1.90;;;;;;;;;;5048013;28;20208;-69
2022/08/31 12:33:20;;;;;;;2.35;2.25;;;;;;;;;;5046858;28;20681;-68
2022/08/31 12:35:48;;;;;;;2.03;1.92;;;;;;;;;;5056506;28;20301;-69
2022/08/31 12:38:18;;;;;;;2.05;1.95;;;;;;;;;;5068667;28;20242;-68
2022/08/31 12:40:46;;;;;;;2.00;1.90;;;;;;;;;;5057741;28;20212;-68
2022/08/31 12:43:16;;;;;;;1.85;1.85;;;;;;;;;;5048568;28;20207;-67
2022/08/31 12:46:10;;;;;;;2.10;2.00;;;;;;;;;;5066931;28;20216;-67
2022/08/31 12:48:53;;;;;;;2.05;1.95;;;;;;;;;;5068370;28;20955;-68
2022/08/31 12:51:27;;;;;;;1.90;1.80;;;;;;;;;;5065169;28;20227;-67
2022/08/31 12:54:11;;;;;;;1.75;1.65;;;;;;;;;;5064534;28;20203;-67
2022/08/31 12:56:40;;;;;;;1.55;1.55;;;;;;;;;;5066045;28;20223;-67
2022/08/31 12:59:13;;;;;;;1.60;1.60;;;;;;;;;;5067563;28;20822;-67
2022/08/31 13:01:42;;;;;;;2.10;2.00;;;;;;;;;;5067850;28;20685;-68
2022/08/31 13:04:12;;;;;;;1.73;1.73;;;;;;;;;;5055996;28;20227;-66
2022/08/31 13:06:43;;;;;;;1.80;1.80;;;;;;;;;;5048158;28;20211;-67
2022/08/31 13:09:23;;;;;;;2.08;1.98;;;;;;;;;;5048076;28;20281;-67
2022/08/31 13:11:52;;;;;;;1.60;1.60;;;;;;;;;;5047923;28;20239;-67
2022/08/31 13:14:21;;;;;;;1.50;1.50;;;;;;;;;;5058421;28;20211;-67
2022/08/31 13:16:49;;;;;;;2.25;2.10;;;;;;;;;;5065962;28;20358;-70
2022/08/31 13:19:24;;;;;;;2.13;2.03;;;;;;;;;;5052963;28;20207;-68
2022/08/31 13:21:53;;;;;;;1.58;1.58;;;;;;;;;;5048022;28;20340;-68
2022/08/31 13:24:27;;;;;;;1.90;1.90;;;;;;;;;;5047836;28;20204;-68
2022/08/31 13:27:03;;;;;;;1.60;1.60;;;;;;;;;;5047870;28;20249;-66
2022/08/31 13:29:30;;;;;;;1.92;1.83;;;;;;;;;;5053959;28;20238;-66
2022/08/31 13:31:58;;;;;;;1.92;1.67;;;;;;;;;;5050102;28;20286;-67
2022/08/31 13:34:27;;;;;;;2.00;1.90;;;;;;;;;;5048445;28;20199;-67
2022/08/31 13:36:58;;;;;;;2.50;2.28;;;;;;;;;;5047404;28;20257;-67
2022/08/31 13:39:26;;;;;;;4.32;1.98;;;;;;;;;;5048981;28;20730;-64
2022/08/31 13:41:56;;;;;;;1.70;1.70;;;;;;;;;;5067424;28;20257;-64
2022/08/31 13:44:28;;;;;;;2.00;1.90;;;;;;;;;;5062663;28;20450;-67
2022/08/31 13:47:01;;;;;;;1.48;1.48;;;;;;;;;;5046501;28;20218;-65
2022/08/31 13:49:34;;;;;;;1.80;1.75;;;;;;;;;;5051322;28;20199;-65
2022/08/31 13:52:02;;;;;;;2.20;1.77;;;;;;;;;;5054780;28;20709;-66
2022/08/31 13:54:31;;;;;;;1.98;1.73;;;;;;;;;;5051553;28;20629;-65
2022/08/31 13:57:09;;;;;;;1.80;1.75;;;;;;;;;;5066543;28;20218;-66
2022/08/31 13:59:36;;;;;;;1.42;1.42;;;;;;;;;;5056553;28;20219;-66
2022/08/31 14:02:07;;;;;;;1.70;1.70;;;;;;;;;;5047402;28;20207;-66
2022/08/31 14:04:48;;;;;;;2.10;2.00;;;;;;;;;;5047775;28;20518;-66
2022/08/31 14:07:20;;;;;;;1.80;1.70;;;;;;;;;;5046535;28;20215;-66
2022/08/31 14:09:47;;;;;;;1.85;1.70;;;;;;;;;;5047428;28;20216;-66
2022/08/31 14:12:33;;;;;;;1.75;1.65;;;;;;;;;;5046328;28;20227;-65
2022/08/31 14:15:07;;;;;;;2.47;1.60;;;;;;;;;;5046657;28;20226;-66
2022/08/31 14:17:35;;;;;;;1.98;1.88;;;;;;;;;;5046172;28;20238;-66
2022/08/31 14:20:17;;;;;;;1.55;1.45;;;;;;;;;;5058010;28;20207;-66
2022/08/31 14:22:48;;;;;;;1.73;1.20;;;;;;;;;;5046291;28;20345;-66
2022/08/31 14:25:18;;;;;;;1.75;1.75;;;;;;;;;;5046587;28;20304;-66
2022/08/31 14:27:45;;;;;;;2.58;1.75;;;;;;;;;;5059485;28;20247;-65
2022/08/31 14:30:13;;;;;;;2.70;1.73;;;;;;;;;;5048313;28;20208;-64
2022/08/31 14:32:44;;;;;;;1.30;1.30;;;;;;;;;;5057731;28;20247;-65
2022/08/31 14:35:11;;;;;;;1.70;1.70;;;;;;;;;;5047755;28;20212;-65
2022/08/31 14:37:42;;;;;;;1.25;1.25;;;;;;;;;;5061816;28;20218;-66
2022/08/31 14:40:12;;;;;;;1.30;1.30;;;;;;;;;;5062691;28;20592;-66
2022/08/31 14:42:40;;;;;;;1.48;1.48;;;;;;;;;;5066907;28;20236;-67
2022/08/31 14:45:08;;;;;;;1.50;1.50;;;;;;;;;;5061267;28;20232;-67
2022/08/31 14:47:37;;;;;;;1.95;1.85;;;;;;;;;;5066141;28;20206;-66
2022/08/31 14:50:05;;;;;;;1.60;1.50;;;;;;;;;;5064689;28;20218;-66
2022/08/31 14:52:32;;;;;;;1.60;1.50;;;;;;;;;;5069661;28;20333;-68
2022/08/31 14:55:01;;;;;;;1.50;1.50;;;;;;;;;;5057968;28;20210;-66
2022/08/31 14:57:30;;;;;;;1.45;1.45;;;;;;;;;;5056621;28;20398;-66
2022/08/31 14:59:59;;;;;;;1.30;1.30;;;;;;;;;;5057518;28;20198;-65
2022/08/31 15:02:27;;;;;;;1.63;1.63;;;;;;;;;;5068262;28;20207;-65
2022/08/31 15:04:55;;;;;;;1.27;1.27;;;;;;;;;;5059027;28;20208;-66
2022/08/31 15:07:22;;;;;;;1.70;1.70;;;;;;;;;;5050961;28;20207;-66
2022/08/31 15:09:49;;;;;;;1.10;1.10;;;;;;;;;;5049672;28;20211;-66
2022/08/31 15:12:16;;;;;;;3.45;1.35;;;;;;;;;;5068528;28;20254;-66
2022/08/31 15:14:45;;;;;;;2.25;1.40;;;;;;;;;;5051710;28;20298;-66